Portada
METAR-TAF:

METAR-TAF

Aeroports :

Vilhena, Rondônia, Brasil

latitud: 12-42S, longitud: 060-06W, altitud: 612 m

Observació

L'informe es va fer fa 6 hores i 13 minuts, a les 23:00 UTC
Vent 4 kt del Est/Sud-Est
Temperatura 23°C
Humitat 50%
Pressió 1018 hPa
Visibilitat 10 km o més
sense núvols per sota de 1500 mi sense presència de cumulonimbus.

METAR: SBVH 082300Z 11004KT CAVOK 23/12 Q1018

Hora: 01:13 (05:13 UTC)

Pronòstic

L'informe es va fer fa 8 hores i 13 minuts, a les 21:00 UTC
Pronòstic vàlid del 09 a les 00 UTC al 09 a les 12 UTC
Vent 5 kt del Est
Visibilitat 10 km o més
sense núvols per sota de 1500 mi sense presència de cumulonimbus.

TAF: SBVH 082100Z 0900/0912 09005KT CAVOK TX30/0900Z TN25/0908Z RMK PCZ

Observacions i pronòstics meteorològics de més de 4000 aeroports (METAR i TAF).

Les estacions disponibles són els punts grocs i vermells al mapa.

Posi el ratolí al punt desitjat per veure el nom de l'estació.

Feu clic per veure les observacions i els pronòstics meteorològics.

Per canviar el mapa: feu clic els botons verds amb una creu de color negre per apropar; al botó verd amb un guió per allunyar la imatge; o en les fletxes verdes per a mapes adjacents.


METAR-TAF: